الصفحة الرئيسية
METAR-TAF:

METAR-TAF

مطار :

Vadsø, النرويج

دائرة عرض: 70-04N, خط طول: 029-51E, ارتفاع: 3 متر

مراقبة الطقس الحالي

تاريخ ووقت الإصدار 23 دقيقة قبل الساعة 17:20UTC
ريح 9 عقدة من الشمال الشرقي
درجة الحرارة 6°درجة مئوية
الرطوبة 87%
ضغط 1018 hPa
الرؤية 10 كم أو أكثر
غيوم قليلة على ارتفاع 900 قدم
غيوم مفككة على ارتفاع 1700 قدم

METAR: ENVD 291720Z 05009KT 9999 FEW009 BKN017 06/04 Q1018

زمن: 19:43 (17:43 UTC)

توقعات

تاريخ ووقت الإصدار 3ساعات و 43 دقيقة قبل الساعة 14:00UTC
التوقعات صالحة من29 الساعة 15 UTC إلى 29 الساعة 23 UTC
ريح 10 عقدة من الشرق/الشمال الشرقي
الرؤية 10 كم أو أكثر
غيوم مفككة على ارتفاع 800 قدم
أصبح
من 29 الساعة 17 UTC إلى 29 الساعة 19 UTC
غيوم مفككة على ارتفاع 1200 قدم

TAF: ENVD 291400Z 2915/2923 06010KT 9999 BKN008 BECMG 2917/2919 BKN012

أرصاد الطقس والتوقعات من أكثر من 4000 مطار (تقارير الطقس للمطار METAR والتنبؤ بالطقس بالمطارTAF).

المحطات المتاحة هي النقط الصفراء والحمراء على الخريطة.

حرك المؤشر فوق النقطة لمعرفة اسم المحطة.

ثم انقر لمعرفة أرصاد وتوقعات الطقس.

لتغيير الخارطة: اضغط على الأزرار الخضراء مع رمز الصليب الأسود للتكبير. على الزر الأخضر مع شرطة للتصغير، أو على الأسهم الخضراء للخرائط المجاورة.


METAR-TAF: